sensor_id;sensor_type;location;lat;lon;timestamp;temperature;humidity
14347;DHT22;7257;52.158;9.968;2023-01-04T00:00:17;7.50;99.90
14347;DHT22;7257;52.158;9.968;2023-01-04T00:00:38;7.50;99.90
14347;DHT22;7257;52.158;9.968;2023-01-04T00:01:00;7.50;99.90
14347;DHT22;7257;52.158;9.968;2023-01-04T00:01:22;7.50;99.90
14347;DHT22;7257;52.158;9.968;2023-01-04T00:01:43;7.50;99.90
14347;DHT22;7257;52.158;9.968;2023-01-04T00:02:03;7.50;99.90
14347;DHT22;7257;52.158;9.968;2023-01-04T00:02:25;7.50;99.90
14347;DHT22;7257;52.158;9.968;2023-01-04T00:02:47;7.40;99.90
14347;DHT22;7257;52.158;9.968;2023-01-04T00:03:08;7.50;99.90
14347;DHT22;7257;52.158;9.968;2023-01-04T00:03:29;7.60;99.90
14347;DHT22;7257;52.158;9.968;2023-01-04T00:03:51;7.50;99.90
14347;DHT22;7257;52.158;9.968;2023-01-04T00:04:12;7.50;99.90
14347;DHT22;7257;52.158;9.968;2023-01-04T00:04:33;7.40;99.90
14347;DHT22;7257;52.158;9.968;2023-01-04T00:04:55;7.50;99.90
14347;DHT22;7257;52.158;9.968;2023-01-04T00:05:16;7.50;99.90
14347;DHT22;7257;52.158;9.968;2023-01-04T00:05:37;7.50;99.90
14347;DHT22;7257;52.158;9.968;2023-01-04T00:06:00;7.50;99.90
14347;DHT22;7257;52.158;9.968;2023-01-04T00:06:22;7.40;99.90
14347;DHT22;7257;52.158;9.968;2023-01-04T00:06:43;7.70;99.90
14347;DHT22;7257;52.158;9.968;2023-01-04T00:07:04;7.50;99.90
14347;DHT22;7257;52.158;9.968;2023-01-04T00:07:27;7.40;99.90
14347;DHT22;7257;52.158;9.968;2023-01-04T00:07:49;7.50;99.90
14347;DHT22;7257;52.158;9.968;2023-01-04T00:08:10;7.50;99.90
14347;DHT22;7257;52.158;9.968;2023-01-04T00:08:31;7.50;99.90
14347;DHT22;7257;52.158;9.968;2023-01-04T00:08:52;7.50;99.90
14347;DHT22;7257;52.158;9.968;2023-01-04T00:09:14;7.50;99.90
14347;DHT22;7257;52.158;9.968;2023-01-04T00:09:35;7.50;99.90
14347;DHT22;7257;52.158;9.968;2023-01-04T00:09:57;7.50;99.90
14347;DHT22;7257;52.158;9.968;2023-01-04T00:10:18;7.50;99.90
14347;DHT22;7257;52.158;9.968;2023-01-04T00:10:40;7.50;99.90
14347;DHT22;7257;52.158;9.968;2023-01-04T00:11:02;7.50;99.90
14347;DHT22;7257;52.158;9.968;2023-01-04T00:11:23;7.50;99.90
14347;DHT22;7257;52.158;9.968;2023-01-04T00:11:44;7.40;99.90
14347;DHT22;7257;52.158;9.968;2023-01-04T00:12:06;7.50;99.90
14347;DHT22;7257;52.158;9.968;2023-01-04T00:12:27;7.50;99.90
14347;DHT22;7257;52.158;9.968;2023-01-04T00:12:48;7.50;99.90
14347;DHT22;7257;52.158;9.968;2023-01-04T00:13:09;7.50;99.90
14347;DHT22;7257;52.158;9.968;2023-01-04T00:13:31;7.50;99.90
14347;DHT22;7257;52.158;9.968;2023-01-04T00:13:56;7.60;99.90
14347;DHT22;7257;52.158;9.968;2023-01-04T00:14:17;7.50;99.90
14347;DHT22;7257;52.158;9.968;2023-01-04T00:14:41;7.50;99.90
14347;DHT22;7257;52.158;9.968;2023-01-04T00:15:04;7.40;99.90
14347;DHT22;7257;52.158;9.968;2023-01-04T00:15:25;7.50;99.90
14347;DHT22;7257;52.158;9.968;2023-01-04T00:15:46;7.50;99.90
14347;DHT22;7257;52.158;9.968;2023-01-04T00:16:12;7.50;99.90
14347;DHT22;7257;52.158;9.968;2023-01-04T00:16:33;7.50;99.90
14347;DHT22;7257;52.158;9.968;2023-01-04T00:16:54;7.50;99.90
14347;DHT22;7257;52.158;9.968;2023-01-04T00:17:15;7.50;99.90
14347;DHT22;7257;52.158;9.968;2023-01-04T00:17:36;7.40;99.90
14347;DHT22;7257;52.158;9.968;2023-01-04T00:17:57;7.50;99.90
14347;DHT22;7257;52.158;9.968;2023-01-04T00:18:19;7.50;99.90
14347;DHT22;7257;52.158;9.968;2023-01-04T00:18:42;7.50;99.90
14347;DHT22;7257;52.158;9.968;2023-01-04T00:19:03;7.50;99.90
14347;DHT22;7257;52.158;9.968;2023-01-04T00:19:25;7.50;99.90
14347;DHT22;7257;52.158;9.968;2023-01-04T00:19:46;7.50;99.90
14347;DHT22;7257;52.158;9.968;2023-01-04T00:20:08;7.50;99.90
14347;DHT22;7257;52.158;9.968;2023-01-04T00:20:29;7.50;99.90
14347;DHT22;7257;52.158;9.968;2023-01-04T00:20:50;7.50;99.90
14347;DHT22;7257;52.158;9.968;2023-01-04T00:21:13;7.50;99.90
14347;DHT22;7257;52.158;9.968;2023-01-04T00:21:34;7.50;99.90
14347;DHT22;7257;52.158;9.968;2023-01-04T00:21:55;7.40;99.90
14347;DHT22;7257;52.158;9.968;2023-01-04T00:22:16;7.50;99.90
14347;DHT22;7257;52.158;9.968;2023-01-04T00:22:38;7.50;99.90
14347;DHT22;7257;52.158;9.968;2023-01-04T00:22:59;7.50;99.90
14347;DHT22;7257;52.158;9.968;2023-01-04T00:23:20;7.50;99.90
14347;DHT22;7257;52.158;9.968;2023-01-04T00:23:43;7.50;99.90
14347;DHT22;7257;52.158;9.968;2023-01-04T00:24:06;7.50;99.90
14347;DHT22;7257;52.158;9.968;2023-01-04T00:24:29;7.50;99.90
14347;DHT22;7257;52.158;9.968;2023-01-04T00:24:50;7.40;99.90
14347;DHT22;7257;52.158;9.968;2023-01-04T00:25:11;7.50;99.90
14347;DHT22;7257;52.158;9.968;2023-01-04T00:25:32;7.50;99.90
14347;DHT22;7257;52.158;9.968;2023-01-04T00:25:53;7.50;99.90
14347;DHT22;7257;52.158;9.968;2023-01-04T00:26:16;7.50;99.90
14347;DHT22;7257;52.158;9.968;2023-01-04T00:26:38;7.50;99.90
14347;DHT22;7257;52.158;9.968;2023-01-04T00:27:00;7.40;99.90
14347;DHT22;7257;52.158;9.968;2023-01-04T00:27:21;7.40;99.90
14347;DHT22;7257;52.158;9.968;2023-01-04T00:27:42;7.50;99.90
14347;DHT22;7257;52.158;9.968;2023-01-04T00:28:03;7.30;99.90
14347;DHT22;7257;52.158;9.968;2023-01-04T00:28:24;7.50;99.90
14347;DHT22;7257;52.158;9.968;2023-01-04T00:28:46;7.50;99.90
14347;DHT22;7257;52.158;9.968;2023-01-04T00:29:10;7.40;99.90
14347;DHT22;7257;52.158;9.968;2023-01-04T00:29:31;7.50;99.90
14347;DHT22;7257;52.158;9.968;2023-01-04T00:29:53;7.50;99.90
14347;DHT22;7257;52.158;9.968;2023-01-04T00:30:14;7.50;99.90
14347;DHT22;7257;52.158;9.968;2023-01-04T00:30:36;7.40;99.90
14347;DHT22;7257;52.158;9.968;2023-01-04T00:31:01;7.30;99.90
14347;DHT22;7257;52.158;9.968;2023-01-04T00:31:25;7.30;99.90
14347;DHT22;7257;52.158;9.968;2023-01-04T00:31:47;7.40;99.90
14347;DHT22;7257;52.158;9.968;2023-01-04T00:32:08;7.30;99.90
14347;DHT22;7257;52.158;9.968;2023-01-04T00:32:30;7.30;99.90
14347;DHT22;7257;52.158;9.968;2023-01-04T00:32:51;7.40;99.90
14347;DHT22;7257;52.158;9.968;2023-01-04T00:33:13;7.40;99.90
14347;DHT22;7257;52.158;9.968;2023-01-04T00:33:34;7.40;99.90
14347;DHT22;7257;52.158;9.968;2023-01-04T00:33:56;7.40;99.90
14347;DHT22;7257;52.158;9.968;2023-01-04T00:34:17;7.30;99.90
14347;DHT22;7257;52.158;9.968;2023-01-04T00:34:39;7.30;99.90
14347;DHT22;7257;52.158;9.968;2023-01-04T00:35:00;7.40;99.90
14347;DHT22;7257;52.158;9.968;2023-01-04T00:35:21;7.40;99.90
14347;DHT22;7257;52.158;9.968;2023-01-04T00:35:42;7.40;99.90
14347;DHT22;7257;52.158;9.968;2023-01-04T00:36:06;7.40;99.90
14347;DHT22;7257;52.158;9.968;2023-01-04T00:36:27;7.30;99.90
14347;DHT22;7257;52.158;9.968;2023-01-04T00:36:49;7.40;99.90
14347;DHT22;7257;52.158;9.968;2023-01-04T00:37:11;7.40;99.90
14347;DHT22;7257;52.158;9.968;2023-01-04T00:37:31;7.30;99.90
14347;DHT22;7257;52.158;9.968;2023-01-04T00:37:52;7.20;99.90
14347;DHT22;7257;52.158;9.968;2023-01-04T00:38:13;7.30;99.90
14347;DHT22;7257;52.158;9.968;2023-01-04T00:38:34;7.30;99.90
14347;DHT22;7257;52.158;9.968;2023-01-04T00:38:57;7.30;99.90
14347;DHT22;7257;52.158;9.968;2023-01-04T00:39:29;7.30;99.90
14347;DHT22;7257;52.158;9.968;2023-01-04T00:39:50;7.20;99.90
14347;DHT22;7257;52.158;9.968;2023-01-04T00:40:11;7.30;99.90
14347;DHT22;7257;52.158;9.968;2023-01-04T00:40:33;7.30;99.90
14347;DHT22;7257;52.158;9.968;2023-01-04T00:40:54;7.30;99.90
14347;DHT22;7257;52.158;9.968;2023-01-04T00:41:16;7.30;99.90
14347;DHT22;7257;52.158;9.968;2023-01-04T00:41:38;7.20;99.90
14347;DHT22;7257;52.158;9.968;2023-01-04T00:41:59;7.20;99.90
14347;DHT22;7257;52.158;9.968;2023-01-04T00:42:25;7.20;99.90
14347;DHT22;7257;52.158;9.968;2023-01-04T00:42:46;7.20;99.90
14347;DHT22;7257;52.158;9.968;2023-01-04T00:43:08;7.30;99.90
14347;DHT22;7257;52.158;9.968;2023-01-04T00:43:29;7.30;99.90
14347;DHT22;7257;52.158;9.968;2023-01-04T00:43:51;7.30;99.90
14347;DHT22;7257;52.158;9.968;2023-01-04T00:44:12;7.30;99.90
14347;DHT22;7257;52.158;9.968;2023-01-04T00:44:34;7.20;99.90
14347;DHT22;7257;52.158;9.968;2023-01-04T00:44:57;7.20;99.90
14347;DHT22;7257;52.158;9.968;2023-01-04T00:45:19;7.30;99.90
14347;DHT22;7257;52.158;9.968;2023-01-04T00:45:42;7.30;99.90
14347;DHT22;7257;52.158;9.968;2023-01-04T00:46:03;7.30;99.90
14347;DHT22;7257;52.158;9.968;2023-01-04T00:46:27;7.20;99.90
14347;DHT22;7257;52.158;9.968;2023-01-04T00:46:49;7.20;99.90
14347;DHT22;7257;52.158;9.968;2023-01-04T00:47:13;7.20;99.90
14347;DHT22;7257;52.158;9.968;2023-01-04T00:47:34;7.30;99.90
14347;DHT22;7257;52.158;9.968;2023-01-04T00:47:55;7.20;99.90
14347;DHT22;7257;52.158;9.968;2023-01-04T00:48:17;7.20;99.90
14347;DHT22;7257;52.158;9.968;2023-01-04T00:48:38;7.30;99.90
14347;DHT22;7257;52.158;9.968;2023-01-04T00:48:59;7.30;99.90
14347;DHT22;7257;52.158;9.968;2023-01-04T00:49:20;7.20;99.90
14347;DHT22;7257;52.158;9.968;2023-01-04T00:49:42;7.30;99.90
14347;DHT22;7257;52.158;9.968;2023-01-04T00:50:04;7.10;99.90
14347;DHT22;7257;52.158;9.968;2023-01-04T00:50:25;7.20;99.90
14347;DHT22;7257;52.158;9.968;2023-01-04T00:50:47;7.20;99.90
14347;DHT22;7257;52.158;9.968;2023-01-04T00:51:09;7.20;99.90
14347;DHT22;7257;52.158;9.968;2023-01-04T00:51:31;7.30;99.90
14347;DHT22;7257;52.158;9.968;2023-01-04T00:51:52;7.20;99.90
14347;DHT22;7257;52.158;9.968;2023-01-04T00:52:13;7.30;99.90
14347;DHT22;7257;52.158;9.968;2023-01-04T00:52:35;7.20;99.90
14347;DHT22;7257;52.158;9.968;2023-01-04T00:52:56;7.30;99.90
14347;DHT22;7257;52.158;9.968;2023-01-04T00:53:17;7.20;99.90
14347;DHT22;7257;52.158;9.968;2023-01-04T00:53:38;7.20;99.90
14347;DHT22;7257;52.158;9.968;2023-01-04T00:54:01;7.20;99.90
14347;DHT22;7257;52.158;9.968;2023-01-04T00:54:24;7.20;99.90
14347;DHT22;7257;52.158;9.968;2023-01-04T00:54:45;7.20;99.90
14347;DHT22;7257;52.158;9.968;2023-01-04T00:55:07;7.20;99.90
14347;DHT22;7257;52.158;9.968;2023-01-04T00:55:31;7.20;99.90
14347;DHT22;7257;52.158;9.968;2023-01-04T00:55:58;7.20;99.90
14347;DHT22;7257;52.158;9.968;2023-01-04T00:56:20;7.20;99.90
14347;DHT22;7257;52.158;9.968;2023-01-04T00:56:41;7.20;99.90
14347;DHT22;7257;52.158;9.968;2023-01-04T00:57:03;7.20;99.90
14347;DHT22;7257;52.158;9.968;2023-01-04T00:57:25;7.20;99.90
14347;DHT22;7257;52.158;9.968;2023-01-04T00:57:45;7.20;99.90
14347;DHT22;7257;52.158;9.968;2023-01-04T00:58:07;7.20;99.90
14347;DHT22;7257;52.158;9.968;2023-01-04T00:58:29;7.20;99.90
14347;DHT22;7257;52.158;9.968;2023-01-04T00:58:53;7.20;99.90
14347;DHT22;7257;52.158;9.968;2023-01-04T00:59:17;7.20;99.90
14347;DHT22;7257;52.158;9.968;2023-01-04T00:59:39;7.10;99.90
14347;DHT22;7257;52.158;9.968;2023-01-04T01:00:00;7.20;99.90
14347;DHT22;7257;52.158;9.968;2023-01-04T01:00:21;7.20;99.90
14347;DHT22;7257;52.158;9.968;2023-01-04T01:00:43;7.20;99.90
14347;DHT22;7257;52.158;9.968;2023-01-04T01:01:05;7.20;99.90
14347;DHT22;7257;52.158;9.968;2023-01-04T01:01:29;7.20;99.90
14347;DHT22;7257;52.158;9.968;2023-01-04T01:01:50;7.20;99.90
14347;DHT22;7257;52.158;9.968;2023-01-04T01:02:12;7.20;99.90
14347;DHT22;7257;52.158;9.968;2023-01-04T01:02:33;7.20;99.90
14347;DHT22;7257;52.158;9.968;2023-01-04T01:02:54;7.20;99.90
14347;DHT22;7257;52.158;9.968;2023-01-04T01:03:15;7.20;99.90
14347;DHT22;7257;52.158;9.968;2023-01-04T01:03:36;7.20;99.90
14347;DHT22;7257;52.158;9.968;2023-01-04T01:04:00;7.20;99.90
14347;DHT22;7257;52.158;9.968;2023-01-04T01:04:22;7.20;99.90
14347;DHT22;7257;52.158;9.968;2023-01-04T01:04:44;7.20;99.90
14347;DHT22;7257;52.158;9.968;2023-01-04T01:05:06;7.20;99.90
14347;DHT22;7257;52.158;9.968;2023-01-04T01:05:27;7.20;99.90
14347;DHT22;7257;52.158;9.968;2023-01-04T01:05:48;7.20;99.90
14347;DHT22;7257;52.158;9.968;2023-01-04T01:06:09;7.20;99.90
14347;DHT22;7257;52.158;9.968;2023-01-04T01:06:33;7.20;99.90
14347;DHT22;7257;52.158;9.968;2023-01-04T01:06:54;7.20;99.90
14347;DHT22;7257;52.158;9.968;2023-01-04T01:07:15;7.20;99.90
14347;DHT22;7257;52.158;9.968;2023-01-04T01:07:36;7.20;99.90
14347;DHT22;7257;52.158;9.968;2023-01-04T01:07:57;7.20;99.90
14347;DHT22;7257;52.158;9.968;2023-01-04T01:08:39;7.20;99.90
14347;DHT22;7257;52.158;9.968;2023-01-04T01:09:00;7.20;99.90
14347;DHT22;7257;52.158;9.968;2023-01-04T01:09:22;7.20;99.90
14347;DHT22;7257;52.158;9.968;2023-01-04T01:09:44;7.20;99.90
14347;DHT22;7257;52.158;9.968;2023-01-04T01:10:07;7.20;99.90
14347;DHT22;7257;52.158;9.968;2023-01-04T01:10:28;7.20;99.90
14347;DHT22;7257;52.158;9.968;2023-01-04T01:10:50;7.10;99.90
14347;DHT22;7257;52.158;9.968;2023-01-04T01:11:11;7.20;99.90
14347;DHT22;7257;52.158;9.968;2023-01-04T01:11:34;7.20;99.90
14347;DHT22;7257;52.158;9.968;2023-01-04T01:11:56;7.10;99.90
14347;DHT22;7257;52.158;9.968;2023-01-04T01:12:19;7.10;99.90
14347;DHT22;7257;52.158;9.968;2023-01-04T01:12:40;7.20;99.90
14347;DHT22;7257;52.158;9.968;2023-01-04T01:13:01;7.10;99.90
14347;DHT22;7257;52.158;9.968;2023-01-04T01:13:22;7.10;99.90
14347;DHT22;7257;52.158;9.968;2023-01-04T01:13:44;7.10;99.90
14347;DHT22;7257;52.158;9.968;2023-01-04T01:14:05;7.20;99.90
14347;DHT22;7257;52.158;9.968;2023-01-04T01:14:28;7.10;99.90
14347;DHT22;7257;52.158;9.968;2023-01-04T01:14:49;7.10;99.90
14347;DHT22;7257;52.158;9.968;2023-01-04T01:15:10;7.20;99.90
14347;DHT22;7257;52.158;9.968;2023-01-04T01:15:33;7.20;99.90
14347;DHT22;7257;52.158;9.968;2023-01-04T01:15:54;7.10;99.90
14347;DHT22;7257;52.158;9.968;2023-01-04T01:16:20;7.20;99.90
14347;DHT22;7257;52.158;9.968;2023-01-04T01:16:43;7.10;99.90
14347;DHT22;7257;52.158;9.968;2023-01-04T01:17:04;7.20;99.90
14347;DHT22;7257;52.158;9.968;2023-01-04T01:17:25;7.20;99.90
14347;DHT22;7257;52.158;9.968;2023-01-04T01:17:46;7.20;99.90
14347;DHT22;7257;52.158;9.968;2023-01-04T01:18:07;7.10;99.90
14347;DHT22;7257;52.158;9.968;2023-01-04T01:18:28;7.20;99.90
14347;DHT22;7257;52.158;9.968;2023-01-04T01:18:49;7.10;99.90
14347;DHT22;7257;52.158;9.968;2023-01-04T01:19:11;7.10;99.90
14347;DHT22;7257;52.158;9.968;2023-01-04T01:19:32;7.10;99.90
14347;DHT22;7257;52.158;9.968;2023-01-04T01:19:54;7.00;99.90
14347;DHT22;7257;52.158;9.968;2023-01-04T01:20:15;7.00;99.90
14347;DHT22;7257;52.158;9.968;2023-01-04T01:20:43;7.10;99.90
14347;DHT22;7257;52.158;9.968;2023-01-04T01:21:04;7.10;99.90
14347;DHT22;7257;52.158;9.968;2023-01-04T01:21:26;7.10;99.90
14347;DHT22;7257;52.158;9.968;2023-01-04T01:21:47;7.00;99.90
14347;DHT22;7257;52.158;9.968;2023-01-04T01:22:09;7.10;99.90
14347;DHT22;7257;52.158;9.968;2023-01-04T01:22:31;7.10;99.90
14347;DHT22;7257;52.158;9.968;2023-01-04T01:22:54;7.00;99.90
14347;DHT22;7257;52.158;9.968;2023-01-04T01:23:15;7.00;99.90
14347;DHT22;7257;52.158;9.968;2023-01-04T01:23:36;7.10;99.90
14347;DHT22;7257;52.158;9.968;2023-01-04T01:23:58;7.10;99.90
14347;DHT22;7257;52.158;9.968;2023-01-04T01:24:20;7.00;99.90
14347;DHT22;7257;52.158;9.968;2023-01-04T01:24:41;7.00;99.90
14347;DHT22;7257;52.158;9.968;2023-01-04T01:25:01;7.00;99.90
14347;DHT22;7257;52.158;9.968;2023-01-04T01:25:23;7.00;99.90
14347;DHT22;7257;52.158;9.968;2023-01-04T01:25:44;7.00;99.90
14347;DHT22;7257;52.158;9.968;2023-01-04T01:26:08;7.00;99.90
14347;DHT22;7257;52.158;9.968;2023-01-04T01:26:30;7.00;99.90
14347;DHT22;7257;52.158;9.968;2023-01-04T01:26:52;7.00;99.90
14347;DHT22;7257;52.158;9.968;2023-01-04T01:27:12;7.00;99.90
14347;DHT22;7257;52.158;9.968;2023-01-04T01:27:33;7.00;99.90
14347;DHT22;7257;52.158;9.968;2023-01-04T01:27:54;7.00;99.90
14347;DHT22;7257;52.158;9.968;2023-01-04T01:28:15;7.00;99.90
14347;DHT22;7257;52.158;9.968;2023-01-04T01:28:38;7.00;99.90
14347;DHT22;7257;52.158;9.968;2023-01-04T01:28:59;7.10;99.90
14347;DHT22;7257;52.158;9.968;2023-01-04T01:29:20;7.00;99.90
14347;DHT22;7257;52.158;9.968;2023-01-04T01:29:43;7.00;99.90
14347;DHT22;7257;52.158;9.968;2023-01-04T01:30:05;7.00;99.90
14347;DHT22;7257;52.158;9.968;2023-01-04T01:30:26;7.00;99.90
14347;DHT22;7257;52.158;9.968;2023-01-04T01:30:47;7.00;99.90
14347;DHT22;7257;52.158;9.968;2023-01-04T01:31:11;7.10;99.90
14347;DHT22;7257;52.158;9.968;2023-01-04T01:31:33;7.00;99.90
14347;DHT22;7257;52.158;9.968;2023-01-04T01:31:55;7.00;99.90
14347;DHT22;7257;52.158;9.968;2023-01-04T01:32:16;7.00;99.90
14347;DHT22;7257;52.158;9.968;2023-01-04T01:32:38;7.00;99.90
14347;DHT22;7257;52.158;9.968;2023-01-04T01:32:59;7.00;99.90
14347;DHT22;7257;52.158;9.968;2023-01-04T01:33:20;7.00;99.90
14347;DHT22;7257;52.158;9.968;2023-01-04T01:33:42;7.00;99.90
14347;DHT22;7257;52.158;9.968;2023-01-04T01:34:05;7.00;99.90
14347;DHT22;7257;52.158;9.968;2023-01-04T01:34:26;7.00;99.90
14347;DHT22;7257;52.158;9.968;2023-01-04T01:34:46;7.00;99.90
14347;DHT22;7257;52.158;9.968;2023-01-04T01:35:08;7.00;99.90
14347;DHT22;7257;52.158;9.968;2023-01-04T01:35:29;7.00;99.90
14347;DHT22;7257;52.158;9.968;2023-01-04T01:35:52;7.00;99.90
14347;DHT22;7257;52.158;9.968;2023-01-04T01:36:15;7.00;99.90
14347;DHT22;7257;52.158;9.968;2023-01-04T01:36:36;7.10;99.90
14347;DHT22;7257;52.158;9.968;2023-01-04T01:36:57;7.10;99.90
14347;DHT22;7257;52.158;9.968;2023-01-04T01:37:19;7.00;99.90
14347;DHT22;7257;52.158;9.968;2023-01-04T01:37:40;7.10;99.90
14347;DHT22;7257;52.158;9.968;2023-01-04T01:38:01;7.00;99.90
14347;DHT22;7257;52.158;9.968;2023-01-04T01:38:22;7.10;99.90
14347;DHT22;7257;52.158;9.968;2023-01-04T01:38:44;7.00;99.90
14347;DHT22;7257;52.158;9.968;2023-01-04T01:39:05;7.10;99.90
14347;DHT22;7257;52.158;9.968;2023-01-04T01:39:26;7.10;99.90
14347;DHT22;7257;52.158;9.968;2023-01-04T01:39:48;7.10;99.90
14347;DHT22;7257;52.158;9.968;2023-01-04T01:40:10;7.00;99.90
14347;DHT22;7257;52.158;9.968;2023-01-04T01:40:31;7.00;99.90
14347;DHT22;7257;52.158;9.968;2023-01-04T01:40:52;7.10;99.90
14347;DHT22;7257;52.158;9.968;2023-01-04T01:41:17;7.00;99.90
14347;DHT22;7257;52.158;9.968;2023-01-04T01:41:40;7.10;99.90
14347;DHT22;7257;52.158;9.968;2023-01-04T01:42:01;7.10;99.90
14347;DHT22;7257;52.158;9.968;2023-01-04T01:42:22;7.10;99.90
14347;DHT22;7257;52.158;9.968;2023-01-04T01:42:43;7.10;99.90
14347;DHT22;7257;52.158;9.968;2023-01-04T01:43:08;7.10;99.90
14347;DHT22;7257;52.158;9.968;2023-01-04T01:43:49;7.10;99.90
14347;DHT22;7257;52.158;9.968;2023-01-04T01:44:57;7.00;99.90
14347;DHT22;7257;52.158;9.968;2023-01-04T01:45:31;7.10;99.90
14347;DHT22;7257;52.158;9.968;2023-01-04T01:45:54;7.00;99.90
14347;DHT22;7257;52.158;9.968;2023-01-04T01:46:19;7.00;99.90
14347;DHT22;7257;52.158;9.968;2023-01-04T01:46:43;7.00;99.90
14347;DHT22;7257;52.158;9.968;2023-01-04T01:47:10;7.10;99.90
14347;DHT22;7257;52.158;9.968;2023-01-04T01:47:38;7.00;99.90
14347;DHT22;7257;52.158;9.968;2023-01-04T01:48:04;7.10;99.90
14347;DHT22;7257;52.158;9.968;2023-01-04T01:48:28;7.10;99.90
14347;DHT22;7257;52.158;9.968;2023-01-04T01:48:53;7.00;99.90
14347;DHT22;7257;52.158;9.968;2023-01-04T01:49:22;7.10;99.90
14347;DHT22;7257;52.158;9.968;2023-01-04T01:49:45;7.10;99.90
14347;DHT22;7257;52.158;9.968;2023-01-04T01:50:20;7.10;99.90
14347;DHT22;7257;52.158;9.968;2023-01-04T01:50:45;7.10;99.90
14347;DHT22;7257;52.158;9.968;2023-01-04T01:51:15;7.10;99.90
14347;DHT22;7257;52.158;9.968;2023-01-04T01:51:37;7.10;99.90
14347;DHT22;7257;52.158;9.968;2023-01-04T01:52:02;7.10;99.90
14347;DHT22;7257;52.158;9.968;2023-01-04T01:52:27;7.10;99.90
14347;DHT22;7257;52.158;9.968;2023-01-04T01:52:51;7.10;99.90
14347;DHT22;7257;52.158;9.968;2023-01-04T01:53:14;7.10;99.90
14347;DHT22;7257;52.158;9.968;2023-01-04T01:53:38;7.10;99.90
14347;DHT22;7257;52.158;9.968;2023-01-04T01:54:09;7.20;99.90
14347;DHT22;7257;52.158;9.968;2023-01-04T01:54:35;7.10;99.90
14347;DHT22;7257;52.158;9.968;2023-01-04T01:55:00;7.10;99.90
14347;DHT22;7257;52.158;9.968;2023-01-04T01:55:23;7.10;99.90
14347;DHT22;7257;52.158;9.968;2023-01-04T01:55:45;7.10;99.90
14347;DHT22;7257;52.158;9.968;2023-01-04T01:56:08;7.10;99.90
14347;DHT22;7257;52.158;9.968;2023-01-04T01:56:36;7.10;99.90
14347;DHT22;7257;52.158;9.968;2023-01-04T01:57:00;7.10;99.90
14347;DHT22;7257;52.158;9.968;2023-01-04T01:57:24;7.10;99.90
14347;DHT22;7257;52.158;9.968;2023-01-04T01:57:49;7.10;99.90
14347;DHT22;7257;52.158;9.968;2023-01-04T01:58:20;7.10;99.90
14347;DHT22;7257;52.158;9.968;2023-01-04T01:58:44;7.10;99.90
14347;DHT22;7257;52.158;9.968;2023-01-04T01:59:08;7.10;99.90
14347;DHT22;7257;52.158;9.968;2023-01-04T01:59:33;7.10;99.90
14347;DHT22;7257;52.158;9.968;2023-01-04T02:00:02;7.10;99.90
14347;DHT22;7257;52.158;9.968;2023-01-04T02:00:23;7.10;99.90
14347;DHT22;7257;52.158;9.968;2023-01-04T02:00:44;7.10;99.90
14347;DHT22;7257;52.158;9.968;2023-01-04T02:01:07;7.10;99.90
14347;DHT22;7257;52.158;9.968;2023-01-04T02:01:28;7.20;99.90
14347;DHT22;7257;52.158;9.968;2023-01-04T02:01:49;7.10;99.90
14347;DHT22;7257;52.158;9.968;2023-01-04T02:02:11;7.10;99.90
14347;DHT22;7257;52.158;9.968;2023-01-04T02:02:32;7.10;99.90
14347;DHT22;7257;52.158;9.968;2023-01-04T02:03:11;7.10;99.90
14347;DHT22;7257;52.158;9.968;2023-01-04T02:03:36;7.00;99.90
14347;DHT22;7257;52.158;9.968;2023-01-04T02:04:00;7.20;99.90
14347;DHT22;7257;52.158;9.968;2023-01-04T02:04:22;7.10;99.90
14347;DHT22;7257;52.158;9.968;2023-01-04T02:04:47;7.10;99.90
14347;DHT22;7257;52.158;9.968;2023-01-04T02:05:09;7.10;99.90
14347;DHT22;7257;52.158;9.968;2023-01-04T02:05:32;7.10;99.90
14347;DHT22;7257;52.158;9.968;2023-01-04T02:05:54;7.10;99.90
14347;DHT22;7257;52.158;9.968;2023-01-04T02:06:20;7.10;99.90
14347;DHT22;7257;52.158;9.968;2023-01-04T02:06:45;7.00;99.90
14347;DHT22;7257;52.158;9.968;2023-01-04T02:07:09;7.10;99.90
14347;DHT22;7257;52.158;9.968;2023-01-04T02:07:32;7.10;99.90
14347;DHT22;7257;52.158;9.968;2023-01-04T02:07:53;7.10;99.90
14347;DHT22;7257;52.158;9.968;2023-01-04T02:08:15;7.20;99.90
14347;DHT22;7257;52.158;9.968;2023-01-04T02:08:40;7.10;99.90
14347;DHT22;7257;52.158;9.968;2023-01-04T02:09:02;7.10;99.90
14347;DHT22;7257;52.158;9.968;2023-01-04T02:09:23;7.10;99.90
14347;DHT22;7257;52.158;9.968;2023-01-04T02:09:45;7.10;99.90
14347;DHT22;7257;52.158;9.968;2023-01-04T02:10:08;7.10;99.90
14347;DHT22;7257;52.158;9.968;2023-01-04T02:10:30;7.00;99.90
14347;DHT22;7257;52.158;9.968;2023-01-04T02:10:51;7.10;99.90
14347;DHT22;7257;52.158;9.968;2023-01-04T02:11:13;7.10;99.90
14347;DHT22;7257;52.158;9.968;2023-01-04T02:11:34;7.10;99.90
14347;DHT22;7257;52.158;9.968;2023-01-04T02:11:55;7.10;99.90
14347;DHT22;7257;52.158;9.968;2023-01-04T02:12:16;7.10;99.90
14347;DHT22;7257;52.158;9.968;2023-01-04T02:12:37;7.10;99.90
14347;DHT22;7257;52.158;9.968;2023-01-04T02:13:03;7.10;99.90
14347;DHT22;7257;52.158;9.968;2023-01-04T02:13:29;7.10;99.90
14347;DHT22;7257;52.158;9.968;2023-01-04T02:14:07;7.10;99.90
14347;DHT22;7257;52.158;9.968;2023-01-04T02:14:49;7.10;99.90
14347;DHT22;7257;52.158;9.968;2023-01-04T02:15:12;7.10;99.90
14347;DHT22;7257;52.158;9.968;2023-01-04T02:15:41;7.10;99.90
14347;DHT22;7257;52.158;9.968;2023-01-04T02:16:08;7.10;99.90
14347;DHT22;7257;52.158;9.968;2023-01-04T02:16:52;7.10;99.90
14347;DHT22;7257;52.158;9.968;2023-01-04T02:17:25;7.10;99.90
14347;DHT22;7257;52.158;9.968;2023-01-04T02:17:57;7.10;99.90
14347;DHT22;7257;52.158;9.968;2023-01-04T02:18:24;7.10;99.90
14347;DHT22;7257;52.158;9.968;2023-01-04T02:18:52;7.10;99.90
14347;DHT22;7257;52.158;9.968;2023-01-04T02:19:36;7.10;99.90
14347;DHT22;7257;52.158;9.968;2023-01-04T02:20:22;7.00;99.90
14347;DHT22;7257;52.158;9.968;2023-01-04T02:20:49;7.10;99.90
14347;DHT22;7257;52.158;9.968;2023-01-04T02:21:20;7.10;99.90
14347;DHT22;7257;52.158;9.968;2023-01-04T02:21:55;7.10;99.90
14347;DHT22;7257;52.158;9.968;2023-01-04T02:22:52;7.10;99.90
14347;DHT22;7257;52.158;9.968;2023-01-04T02:23:55;7.10;99.90
14347;DHT22;7257;52.158;9.968;2023-01-04T02:24:45;7.10;99.90
14347;DHT22;7257;52.158;9.968;2023-01-04T02:25:38;7.10;99.90
14347;DHT22;7257;52.158;9.968;2023-01-04T02:27:45;7.10;99.90
14347;DHT22;7257;52.158;9.968;2023-01-04T02:28:11;7.10;99.90
14347;DHT22;7257;52.158;9.968;2023-01-04T02:28:50;7.10;99.90
14347;DHT22;7257;52.158;9.968;2023-01-04T02:29:41;7.10;99.90
14347;DHT22;7257;52.158;9.968;2023-01-04T02:31:00;7.10;99.90
14347;DHT22;7257;52.158;9.968;2023-01-04T02:31:34;7.20;99.90
14347;DHT22;7257;52.158;9.968;2023-01-04T02:31:58;7.20;99.90
14347;DHT22;7257;52.158;9.968;2023-01-04T02:32:28;7.20;99.90
14347;DHT22;7257;52.158;9.968;2023-01-04T02:33:02;7.20;99.90
14347;DHT22;7257;52.158;9.968;2023-01-04T02:33:41;7.20;99.90
14347;DHT22;7257;52.158;9.968;2023-01-04T02:34:06;7.20;99.90
14347;DHT22;7257;52.158;9.968;2023-01-04T02:34:35;7.20;99.90
14347;DHT22;7257;52.158;9.968;2023-01-04T02:35:08;7.20;99.90
14347;DHT22;7257;52.158;9.968;2023-01-04T02:35:39;7.20;99.90
14347;DHT22;7257;52.158;9.968;2023-01-04T02:36:10;7.20;99.90
14347;DHT22;7257;52.158;9.968;2023-01-04T02:36:34;7.10;99.90
14347;DHT22;7257;52.158;9.968;2023-01-04T02:37:09;7.10;99.90
14347;DHT22;7257;52.158;9.968;2023-01-04T02:37:37;7.10;99.90